Time;durP1;ratioP1;P1;durP2;ratioP2;P2;SDS_P1;SDS_P2;PMS_P1;PMS_P2;Temp;Humidity;BMP_temperature;BMP_pressure;BME280_temperature;BME280_humidity;BME280_pressure;Samples;Min_cycle;Max_cycle;Signal;HPM_P1;HPM_P2
2022/11/01 00:01:40;;;;;;;4.43;2.80;;;;;;;9.71;73.25;97171.34;5074224;28;20479;-61
2022/11/01 00:04:09;;;;;;;3.83;3.00;;;;;;;9.73;73.12;97177.41;5074084;28;20375;-61
2022/11/01 00:06:39;;;;;;;3.75;3.00;;;;;;;9.71;72.87;97166.97;5074213;28;20045;-61
2022/11/01 00:09:07;;;;;;;5.93;3.65;;;;;;;9.67;73.15;97165.34;5074008;28;20486;-60
2022/11/01 00:11:34;;;;;;;6.00;3.67;;;;;;;9.61;73.18;97168.94;5073999;28;20056;-61
2022/11/01 00:14:01;;;;;;;4.85;2.85;;;;;;;9.63;72.97;97165.44;5073064;28;20090;-60
2022/11/01 00:16:29;;;;;;;7.57;3.55;;;;;;;9.61;72.45;97168.09;5074165;28;20114;-60
2022/11/01 00:18:56;;;;;;;4.38;3.22;;;;;;;9.58;73.24;97168.16;5073777;28;20052;-61
2022/11/01 00:21:24;;;;;;;5.78;3.38;;;;;;;9.45;73.82;97165.84;5073633;28;20102;-61
2022/11/01 00:23:52;;;;;;;5.40;3.00;;;;;;;9.41;74.53;97164.19;5074125;28;20086;-61
2022/11/01 00:26:20;;;;;;;3.78;2.70;;;;;;;9.42;74.55;97165.06;5073860;28;20048;-60
2022/11/01 00:28:48;;;;;;;5.00;3.15;;;;;;;9.43;74.58;97165.03;5073518;28;20525;-61
2022/11/01 00:31:18;;;;;;;4.47;2.95;;;;;;;9.42;74.09;97159.84;5073650;28;20048;-61
2022/11/01 00:33:45;;;;;;;5.07;3.47;;;;;;;9.43;73.85;97157.19;5073557;28;20076;-60
2022/11/01 00:36:13;;;;;;;4.80;3.33;;;;;;;9.42;73.69;97159.84;5073589;28;20053;-61
2022/11/01 00:38:42;;;;;;;5.47;3.30;;;;;;;9.41;74.03;97163.34;5073486;28;20098;-60
2022/11/01 00:41:09;;;;;;;6.82;2.70;;;;;;;9.32;74.63;97162.66;5073508;28;20053;-61
2022/11/01 00:43:37;;;;;;;3.85;3.03;;;;;;;9.26;75.50;97165.41;5073435;28;20048;-61
2022/11/01 00:46:04;;;;;;;5.13;2.90;;;;;;;9.20;75.76;97158.59;5073277;28;20055;-61
2022/11/01 00:48:32;;;;;;;4.03;2.90;;;;;;;9.09;75.81;97164.03;5073590;28;20425;-60
2022/11/01 00:51:02;;;;;;;4.28;2.95;;;;;;;9.05;76.18;97162.38;5073253;28;20084;-60
2022/11/01 00:53:29;;;;;;;2.70;2.27;;;;;;;9.10;75.76;97157.91;5073281;28;20132;-60
2022/11/01 00:56:02;;;;;;;3.85;3.22;;;;;;;9.07;75.79;97158.00;5073239;28;20368;-61
2022/11/01 00:58:29;;;;;;;4.53;3.05;;;;;;;9.06;76.69;97158.88;5073157;28;20051;-60
2022/11/01 01:00:57;;;;;;;6.97;3.35;;;;;;;9.12;76.78;97157.03;5073318;28;20051;-61
2022/11/01 01:03:24;;;;;;;16.23;3.85;;;;;;;9.14;76.58;97148.28;5073014;28;20063;-61
2022/11/01 01:05:53;;;;;;;7.35;4.07;;;;;;;9.15;76.59;97155.19;5073456;28;20049;-61
2022/11/01 01:08:20;;;;;;;4.30;2.78;;;;;;;9.16;76.14;97146.50;5073088;28;20110;-61
2022/11/01 01:10:47;;;;;;;6.65;3.08;;;;;;;9.13;75.80;97150.91;5073036;28;20044;-60
2022/11/01 01:13:16;;;;;;;3.92;3.10;;;;;;;9.08;76.12;97154.50;5073096;28;20048;-61
2022/11/01 01:15:44;;;;;;;6.35;3.20;;;;;;;9.07;75.65;97151.91;5072947;28;20044;-60
2022/11/01 01:18:11;;;;;;;6.97;3.70;;;;;;;9.01;75.65;97146.81;5072993;28;20056;-60
2022/11/01 01:20:39;;;;;;;7.32;3.85;;;;;;;9.00;76.09;97139.91;5073019;28;20131;-60
2022/11/01 01:23:06;;;;;;;4.55;3.65;;;;;;;8.91;76.42;97140.97;5072574;28;20072;-61
2022/11/01 01:25:33;;;;;;;5.00;3.28;;;;;;;8.85;76.84;97150.63;5076658;28;20049;-62
2022/11/01 01:28:01;;;;;;;6.63;4.20;;;;;;;8.86;77.57;97151.50;5079657;28;20141;-62
2022/11/01 01:30:29;;;;;;;4.95;3.72;;;;;;;8.80;77.65;97146.41;5079573;28;20044;-62
2022/11/01 01:32:56;;;;;;;4.47;3.30;;;;;;;8.73;78.29;97143.06;5079727;28;20114;-61
2022/11/01 01:35:23;;;;;;;5.72;4.40;;;;;;;8.76;78.25;97149.97;5079425;28;20482;-62
2022/11/01 01:37:50;;;;;;;7.97;3.30;;;;;;;8.79;77.41;97136.88;5079576;28;20048;-61
2022/11/01 01:40:17;;;;;;;9.00;3.53;;;;;;;8.81;77.57;97138.53;5079741;28;20052;-62
2022/11/01 01:42:46;;;;;;;7.07;3.53;;;;;;;8.81;77.34;97135.94;5079491;28;20049;-61
2022/11/01 01:45:34;;;;;;;6.47;3.60;;;;;;;8.77;77.65;97139.50;5079506;28;20490;-62
2022/11/01 01:48:09;;;;;;;7.60;3.50;;;;;;;8.80;77.20;97136.84;5079407;28;20072;-62
2022/11/01 01:50:41;;;;;;;6.53;3.00;;;;;;;8.72;77.50;97139.59;5079290;28;20445;-62
2022/11/01 01:53:13;;;;;;;5.00;3.40;;;;;;;8.71;77.85;97140.50;5079300;28;20052;-61
2022/11/01 01:55:45;;;;;;;5.20;3.53;;;;;;;8.71;78.06;97134.41;5079291;28;20055;-61
2022/11/01 01:58:15;;;;;;;4.18;3.10;;;;;;;8.80;78.00;97139.44;5079705;28;20076;-62
2022/11/01 02:00:45;;;;;;;6.40;3.40;;;;;;;8.89;77.32;97142.75;5079361;28;20051;-62
2022/11/01 02:03:13;;;;;;;4.35;3.25;;;;;;;8.89;76.92;97148.81;5079293;28;20128;-61
2022/11/01 02:05:47;;;;;;;8.00;2.72;;;;;;;8.88;77.06;97143.63;5079300;28;20052;-61
2022/11/01 02:08:25;;;;;;;4.55;3.30;;;;;;;8.87;77.62;97145.38;5079248;28;20414;-61
2022/11/01 02:10:54;;;;;;;4.85;3.38;;;;;;;8.89;77.12;97147.97;5079267;28;20131;-62
2022/11/01 02:13:21;;;;;;;5.13;3.33;;;;;;;8.82;77.50;97150.69;5079236;28;20102;-62
2022/11/01 02:16:04;;;;;;;4.03;3.28;;;;;;;8.77;77.85;97144.72;5079135;28;20044;-61
2022/11/01 02:18:41;;;;;;;7.40;2.92;;;;;;;8.71;77.84;97150.06;5079040;28;20102;-61
2022/11/01 02:21:39;;;;;;;3.97;2.85;;;;;;;8.70;78.11;97145.75;5079088;28;20040;-62
2022/11/01 02:24:41;;;;;;;6.65;3.08;;;;;;;8.77;78.18;97154.28;5079028;28;20509;-62
2022/11/01 02:27:23;;;;;;;6.03;3.20;;;;;;;8.80;78.40;97151.63;5078082;28;20087;-61
2022/11/01 02:30:15;;;;;;;5.78;3.50;;;;;;;8.82;78.12;97157.69;5079060;28;20390;-61
2022/11/01 02:33:11;;;;;;;5.05;2.88;;;;;;;8.83;77.49;97162.00;5079312;28;20066;-61
2022/11/01 02:35:54;;;;;;;8.40;3.70;;;;;;;8.83;77.49;97160.25;5073076;28;20049;-61
2022/11/01 02:38:27;;;;;;;5.38;3.25;;;;;;;8.83;77.54;97164.59;5074976;28;20106;-61
2022/11/01 02:41:02;;;;;;;7.38;3.75;;;;;;;8.84;77.13;97158.50;5075795;28;20102;-61
2022/11/01 02:43:35;;;;;;;5.78;4.20;;;;;;;8.84;77.06;97159.34;5075591;28;20388;-62
2022/11/01 02:46:59;;;;;;;6.13;3.60;;;;;;;8.80;76.92;97156.84;5075545;28;20044;-61
2022/11/01 02:48:55;;;;;;;14.05;4.22;;;;;;;8.79;76.82;97158.59;5075590;28;20083;-61
2022/11/01 02:51:25;;;;;;;4.18;3.65;;;;;;;8.79;76.88;97153.38;5075481;28;20097;-61
2022/11/01 02:53:52;;;;;;;5.68;3.25;;;;;;;8.77;77.04;97156.91;5075560;28;20057;-61
2022/11/01 02:56:21;;;;;;;6.55;3.95;;;;;;;8.75;77.21;97162.16;5075508;28;20053;-61
2022/11/01 02:58:49;;;;;;;8.48;4.60;;;;;;;8.71;77.63;97158.75;5075383;28;20582;-61
2022/11/01 03:01:22;;;;;;;5.18;3.83;;;;;;;8.68;77.99;97160.56;5075426;28;20060;-61
2022/11/01 03:03:56;;;;;;;4.25;3.10;;;;;;;8.64;78.41;97159.75;5075497;28;20048;-61
2022/11/01 03:06:28;;;;;;;7.13;3.65;;;;;;;8.61;78.10;97164.19;5075289;28;20482;-61
2022/11/01 03:08:59;;;;;;;5.05;3.60;;;;;;;8.55;77.97;97167.78;5075197;28;20070;-61
2022/11/01 03:11:30;;;;;;;5.88;3.70;;;;;;;8.57;78.18;97172.06;5075266;28;20123;-61
2022/11/01 03:14:01;;;;;;;;;;;;;;;8.56;78.27;97175.59;5075630;28;20063;-61
2022/11/01 03:16:31;;;;;;;;;;;;;;;8.51;78.42;97171.28;5075593;28;20010;-61
2022/11/01 03:19:06;;;;;;;6.57;3.40;;;;;;;8.44;79.57;97173.16;5075068;28;19920;-61
2022/11/01 03:21:40;;;;;;;6.65;3.60;;;;;;;8.40;79.50;97172.34;5075057;28;20082;-61
2022/11/01 03:24:17;;;;;;;8.25;3.80;;;;;;;8.38;79.96;97173.28;5075129;28;20139;-61
2022/11/01 03:26:49;;;;;;;6.15;3.40;;;;;;;8.36;80.02;97169.88;5074899;28;20045;-62
2022/11/01 03:29:19;;;;;;;12.60;3.67;;;;;;;8.34;80.11;97167.28;5074788;28;20098;-61
2022/11/01 03:31:47;;;;;;;4.85;3.78;;;;;;;8.34;80.28;97175.09;5074852;28;20055;-61
2022/11/01 03:34:18;;;;;;;5.60;4.03;;;;;;;8.34;80.33;97177.72;5074781;28;20433;-61
2022/11/01 03:36:51;;;;;;;6.47;3.95;;;;;;;8.36;80.26;97177.69;5074758;28;20045;-62
2022/11/01 03:39:22;;;;;;;5.93;3.63;;;;;;;8.39;80.02;97177.59;5074527;28;20494;-61
2022/11/01 03:41:53;;;;;;;4.85;3.28;;;;;;;8.36;79.78;97175.91;5074727;28;20410;-61
2022/11/01 03:44:21;;;;;;;5.13;3.33;;;;;;;8.41;79.51;97176.69;5074452;28;20135;-61
2022/11/01 03:46:49;;;;;;;6.50;3.90;;;;;;;8.43;79.55;97176.69;5074522;28;20071;-60
2022/11/01 03:49:18;;;;;;;5.72;3.40;;;;;;;8.43;79.54;97174.91;5074529;28;20071;-61
2022/11/01 03:51:46;;;;;;;6.65;3.63;;;;;;;8.46;79.09;97180.06;5074360;28;20049;-61
2022/11/01 03:54:13;;;;;;;4.30;3.40;;;;;;;8.43;79.34;97182.72;5074523;28;20048;-60
2022/11/01 03:56:40;;;;;;;4.43;3.30;;;;;;;8.37;79.69;97179.41;5074237;28;20371;-61
2022/11/01 03:59:08;;;;;;;8.57;3.58;;;;;;;8.34;79.42;97173.34;5074329;28;20052;-61
2022/11/01 04:01:35;;;;;;;4.20;3.10;;;;;;;8.33;79.63;97178.56;5074228;28;20486;-61
2022/11/01 04:04:02;;;;;;;8.18;3.28;;;;;;;8.37;79.78;97177.63;5073998;28;20056;-61
2022/11/01 04:06:31;;;;;;;4.90;3.22;;;;;;;8.29;79.75;97176.94;5074046;28;20080;-61
2022/11/01 04:08:58;;;;;;;7.55;3.75;;;;;;;8.29;80.02;97179.53;5073996;28;20051;-61
2022/11/01 04:11:25;;;;;;;5.60;3.33;;;;;;;8.29;80.07;97174.31;5074000;28;20055;-61
2022/11/01 04:20:31;;;;;;;6.95;3.47;;;;;;;8.26;80.41;97183.06;5073939;28;20060;-61
2022/11/01 04:22:10;;;;;;;4.75;3.40;;;;;;;8.30;80.41;97182.09;5073675;28;20059;-61
2022/11/01 04:24:37;;;;;;;4.50;3.28;;;;;;;8.29;79.85;97175.19;5073634;28;20048;-61
2022/11/01 04:27:05;;;;;;;3.42;3.10;;;;;;;8.32;80.10;97182.09;5073778;28;20552;-61
2022/11/01 04:29:32;;;;;;;6.30;3.78;;;;;;;8.27;79.68;97182.16;5073677;28;20133;-61
2022/11/01 04:31:59;;;;;;;4.85;3.15;;;;;;;8.28;79.64;97175.22;5073535;28;20057;-61
2022/11/01 04:37:07;;;;;;;12.82;3.03;;;;;;;8.16;80.28;97171.94;5073451;28;20061;-61
2022/11/01 04:39:36;;;;;;;7.35;3.28;;;;;;;8.14;80.53;97178.94;5073510;28;20051;-61
2022/11/01 04:42:06;;;;;;;4.72;3.80;;;;;;;8.10;80.76;97177.28;5073458;28;20510;-61
2022/11/01 04:44:34;;;;;;;;;;;;;;;8.09;80.79;97186.81;5073709;28;20135;-61
2022/11/01 04:47:01;;;;;;;6.97;3.83;;;;;;;8.06;80.67;97184.28;5073251;28;19931;-61
2022/11/01 04:49:28;;;;;;;6.43;3.15;;;;;;;8.04;80.42;97185.19;5073589;28;20044;-61
2022/11/01 04:51:55;;;;;;;4.97;3.25;;;;;;;8.01;80.74;97182.63;5073212;28;20056;-61
2022/11/01 04:54:22;;;;;;;8.35;3.05;;;;;;;8.00;80.77;97179.16;5073229;28;20041;-61
2022/11/01 04:56:51;;;;;;;5.50;3.80;;;;;;;7.96;81.71;97183.59;5073136;28;20049;-61
2022/11/01 04:59:18;;;;;;;6.05;3.88;;;;;;;8.01;81.82;97177.44;5072797;28;20079;-61
2022/11/01 05:01:45;;;;;;;6.05;3.67;;;;;;;8.06;81.33;97192.09;5073002;28;20084;-61
2022/11/01 05:04:12;;;;;;;7.20;3.15;;;;;;;8.13;81.26;97182.41;5072953;28;20475;-61
2022/11/01 05:06:39;;;;;;;8.43;3.22;;;;;;;8.22;81.61;97192.66;5073237;28;20052;-61
2022/11/01 05:09:07;;;;;;;6.97;3.72;;;;;;;8.26;81.40;97192.63;5073131;28;20049;-61
2022/11/01 05:11:35;;;;;;;10.93;3.22;;;;;;;8.27;81.11;97189.13;5073048;28;20500;-61
2022/11/01 05:14:04;;;;;;;6.85;3.45;;;;;;;8.32;81.53;97198.59;5073122;28;20048;-61
2022/11/01 05:16:31;;;;;;;4.18;3.53;;;;;;;8.36;81.64;97201.16;5072973;28;20086;-61
2022/11/01 05:18:58;;;;;;;4.57;3.28;;;;;;;8.41;82.01;97197.56;5072966;28;20056;-61
2022/11/01 05:21:25;;;;;;;10.27;3.50;;;;;;;8.57;81.58;97198.16;5072769;28;20086;-61
2022/11/01 05:23:52;;;;;;;9.07;3.90;;;;;;;8.67;81.21;97206.66;5072885;28;20049;-60
2022/11/01 05:26:20;;;;;;;3.92;3.45;;;;;;;8.77;80.48;97201.25;5072948;28;20044;-60
2022/11/01 05:28:47;;;;;;;4.35;3.25;;;;;;;8.89;79.81;97205.34;5072864;28;20052;-61
2022/11/01 05:31:15;;;;;;;5.57;3.40;;;;;;;9.19;79.88;97213.44;5073248;28;20055;-61
2022/11/01 05:33:42;;;;;;;5.68;3.20;;;;;;;9.98;77.98;97208.13;5072942;28;20083;-61
2022/11/01 05:36:10;;;;;;;11.45;3.55;;;;;;;11.12;74.60;97213.84;5072854;28;20102;-61
2022/11/01 05:38:37;;;;;;;6.30;2.80;;;;;;;12.28;68.44;97212.03;5072755;28;20072;-60
2022/11/01 05:41:04;;;;;;;4.57;2.58;;;;;;;13.37;64.12;97208.09;5072912;28;20098;-61
2022/11/01 05:43:31;;;;;;;5.30;2.50;;;;;;;14.40;60.38;97210.13;5072752;28;20056;-60
2022/11/01 05:45:59;;;;;;;4.13;2.50;;;;;;;15.45;57.14;97212.56;5072894;28;20044;-60
2022/11/01 05:48:27;;;;;;;2.78;1.98;;;;;;;16.49;54.18;97209.28;5072730;28;20418;-60
2022/11/01 05:50:54;;;;;;;4.70;2.63;;;;;;;17.47;51.46;97212.13;5072866;28;20045;-60
2022/11/01 05:53:21;;;;;;;3.15;1.90;;;;;;;18.39;48.77;97214.03;5072666;28;20406;-60
2022/11/01 05:55:48;;;;;;;3.53;1.90;;;;;;;19.20;47.06;97219.78;5073002;28;20052;-61
2022/11/01 05:58:15;;;;;;;3.85;1.80;;;;;;;20.02;45.14;97220.88;5072619;28;20048;-60
2022/11/01 06:00:42;;;;;;;5.18;2.22;;;;;;;20.86;43.48;97222.41;5072661;28;20044;-61
2022/11/01 06:03:09;;;;;;;4.45;2.15;;;;;;;21.68;41.65;97214.00;5072531;28;20076;-60
2022/11/01 06:05:39;;;;;;;4.15;2.22;;;;;;;22.42;39.97;97224.59;5072422;28;20057;-61
2022/11/01 06:08:07;;;;;;;3.65;1.63;;;;;;;23.05;39.04;97226.94;5072545;28;20048;-60
2022/11/01 06:10:35;;;;;;;3.78;1.67;;;;;;;23.72;37.25;97231.56;5072572;28;20044;-61
2022/11/01 06:13:02;;;;;;;4.13;2.00;;;;;;;24.45;36.30;97224.75;5074976;28;20102;-61
2022/11/01 06:15:31;;;;;;;2.15;1.95;;;;;;;25.08;35.36;97228.41;5076280;28;20045;-61
2022/11/01 06:17:59;;;;;;;2.80;1.95;;;;;;;25.60;34.80;97236.38;5076151;28;20041;-61
2022/11/01 06:20:28;;;;;;;2.50;2.03;;;;;;;26.18;33.64;97228.56;5076358;28;20092;-61
2022/11/01 06:22:57;;;;;;;3.17;1.85;;;;;;;26.81;32.32;97229.09;5075980;28;20056;-61
2022/11/01 06:25:25;;;;;;;3.05;1.90;;;;;;;27.29;31.50;97236.31;5075943;28;20056;-61
2022/11/01 06:27:53;;;;;;;3.67;2.13;;;;;;;27.82;30.61;97240.19;5076011;28;20051;-61
2022/11/01 06:30:21;;;;;;;2.42;1.90;;;;;;;28.36;30.04;97238.56;5075911;28;20084;-62
2022/11/01 06:32:49;;;;;;;3.50;2.05;;;;;;;28.87;29.23;97237.94;5075910;28;20411;-61
2022/11/01 06:35:16;;;;;;;3.42;2.15;;;;;;;29.31;29.26;97237.03;5076049;28;20505;-61
2022/11/01 06:37:44;;;;;;;2.03;1.75;;;;;;;29.68;28.82;97247.66;5076118;28;20542;-61
2022/11/01 06:40:13;;;;;;;2.72;2.10;;;;;;;29.99;28.37;97239.00;5075891;28;20624;-61
2022/11/01 06:42:41;;;;;;;3.58;2.38;;;;;;;30.31;27.68;97239.25;5075791;28;20486;-60
2022/11/01 06:45:09;;;;;;;3.25;1.75;;;;;;;30.65;27.04;97238.22;5075644;28;20380;-61
2022/11/01 06:47:36;;;;;;;5.18;1.90;;;;;;;30.94;26.54;97239.56;5075540;28;20418;-61
2022/11/01 06:50:03;;;;;;;2.55;1.92;;;;;;;31.27;25.88;97242.19;5075621;28;20410;-61
2022/11/01 06:52:31;;;;;;;2.45;2.25;;;;;;;31.49;25.77;97237.09;5075523;28;20084;-60
2022/11/01 06:54:58;;;;;;;8.02;2.53;;;;;;;31.59;25.47;97244.13;5075582;28;20051;-59
2022/11/01 06:57:27;;;;;;;4.82;2.35;;;;;;;31.86;24.94;97247.38;5075646;28;20044;-61
2022/11/01 06:59:56;;;;;;;4.13;2.30;;;;;;;32.10;24.74;97248.28;5075403;28;20040;-61
2022/11/01 07:02:24;;;;;;;3.63;1.98;;;;;;;32.37;24.73;97243.34;5075801;28;20098;-61
2022/11/01 07:04:52;;;;;;;3.70;2.30;;;;;;;32.72;24.42;97243.75;5075293;28;20135;-61
2022/11/01 07:07:19;;;;;;;3.22;2.05;;;;;;;33.08;23.80;97238.72;5075334;28;20048;-61
2022/11/01 07:09:46;;;;;;;3.65;2.70;;;;;;;33.30;22.92;97245.09;5075639;28;20098;-61
2022/11/01 07:12:13;;;;;;;4.93;2.55;;;;;;;33.52;22.69;97245.16;5075198;28;20048;-61
2022/11/01 07:14:43;;;;;;;4.80;2.67;;;;;;;33.48;22.77;97235.72;5075170;28;20048;-61
2022/11/01 07:17:11;;;;;;;4.55;3.03;;;;;;;33.63;22.60;97241.16;5075213;28;20068;-61
2022/11/01 07:19:39;;;;;;;7.15;2.30;;;;;;;33.96;22.26;97235.31;5074661;28;20079;-61
2022/11/01 07:22:07;;;;;;;5.70;2.80;;;;;;;34.30;21.91;97232.94;5074933;28;20131;-61
2022/11/01 07:24:37;;;;;;;3.95;2.65;;;;;;;34.52;21.57;97231.06;5074886;28;20045;-61
2022/11/01 07:27:05;;;;;;;4.27;2.93;;;;;;;34.50;21.43;97233.16;5074935;28;20051;-61
2022/11/01 07:29:33;;;;;;;5.38;2.80;;;;;;;34.47;21.19;97230.81;5074861;28;20099;-61
2022/11/01 07:32:02;;;;;;;4.50;2.85;;;;;;;34.70;21.42;97239.81;5074718;28;20052;-61
2022/11/01 07:34:31;;;;;;;4.93;2.55;;;;;;;34.95;20.73;97234.78;5074899;28;20119;-61
2022/11/01 07:36:59;;;;;;;3.85;2.97;;;;;;;35.31;20.88;97240.25;5074684;28;20090;-61
2022/11/01 07:39:26;;;;;;;5.63;2.75;;;;;;;35.36;20.61;97240.50;5074780;28;20048;-61
2022/11/01 07:41:54;;;;;;;4.30;2.85;;;;;;;35.48;20.19;97240.78;5074775;28;20048;-61
2022/11/01 07:44:21;;;;;;;5.35;3.08;;;;;;;35.45;19.82;97236.53;5074478;28;20099;-61
2022/11/01 07:46:49;;;;;;;7.35;2.75;;;;;;;35.32;19.81;97240.03;5074652;28;20052;-61
2022/11/01 07:49:18;;;;;;;7.00;2.95;;;;;;;35.28;19.91;97233.34;5074517;28;20127;-59
2022/11/01 07:51:45;;;;;;;3.22;2.13;;;;;;;35.02;19.71;97240.25;5074541;28;20505;-61
2022/11/01 07:54:12;;;;;;;6.57;2.70;;;;;;;34.60;20.37;97238.22;5074342;28;20087;-61
2022/11/01 07:56:39;;;;;;;5.68;2.70;;;;;;;34.08;20.30;97229.34;5074310;28;20551;-60
2022/11/01 07:59:06;;;;;;;6.88;2.65;;;;;;;33.26;21.38;97222.09;5074296;28;20048;-61
2022/11/01 08:01:33;;;;;;;2.30;1.80;;;;;;;32.53;22.70;97235.16;5074161;28;20045;-60
2022/11/01 08:04:00;;;;;;;3.28;2.13;;;;;;;31.49;23.66;97226.28;5074216;28;20048;-60
2022/11/01 08:06:29;;;;;;;3.50;1.88;;;;;;;30.43;24.32;97223.56;5074438;28;20044;-60
2022/11/01 08:08:56;;;;;;;3.03;1.90;;;;;;;29.53;25.73;97221.31;5074150;28;20079;-60
2022/11/01 08:11:23;;;;;;;3.17;2.17;;;;;;;28.58;27.12;97220.22;5074075;28;20056;-60
2022/11/01 08:13:51;;;;;;;4.47;2.75;;;;;;;27.71;28.80;97219.75;5074205;28;20472;-60
2022/11/01 08:16:18;;;;;;;5.57;2.35;;;;;;;27.15;29.60;97213.50;5073899;28;20476;-60
2022/11/01 08:18:46;;;;;;;3.95;2.25;;;;;;;26.83;29.80;97215.53;5073867;28;20044;-60
2022/11/01 08:21:17;;;;;;;3.70;2.20;;;;;;;26.59;30.45;97212.34;5073760;28;20041;-60
2022/11/01 08:23:46;;;;;;;3.17;2.33;;;;;;;26.18;30.80;97217.84;5073922;28;20049;-60
2022/11/01 08:26:14;;;;;;;5.10;2.60;;;;;;;25.85;31.48;97209.22;5073963;28;20494;-60
2022/11/01 08:28:42;;;;;;;3.28;2.33;;;;;;;25.66;32.30;97212.69;5073672;28;20094;-60
2022/11/01 08:31:10;;;;;;;2.25;1.77;;;;;;;25.54;32.48;97218.16;5073683;28;20048;-60
2022/11/01 08:33:37;;;;;;;7.22;2.47;;;;;;;25.28;33.03;97215.13;5073670;28;20044;-59
2022/11/01 08:36:05;;;;;;;3.67;2.45;;;;;;;25.17;32.88;97211.56;5072749;28;20040;-60
2022/11/01 08:38:32;;;;;;;3.30;1.98;;;;;;;25.09;32.83;97214.03;5073761;28;20453;-60
2022/11/01 08:41:01;;;;;;;8.82;2.58;;;;;;;24.94;34.05;97209.03;5073567;28;20083;-60
2022/11/01 08:43:29;;;;;;;4.05;2.78;;;;;;;24.66;34.02;97206.06;5073496;28;20055;-60
2022/11/01 08:45:58;;;;;;;4.18;2.58;;;;;;;24.71;34.12;97213.69;5073415;28;20056;-60
2022/11/01 08:48:26;;;;;;;4.75;2.33;;;;;;;24.77;33.15;97213.13;5073453;28;20131;-60
2022/11/01 08:50:53;;;;;;;4.30;2.58;;;;;;;24.70;33.95;97209.28;5073345;28;20044;-60
2022/11/01 08:53:20;;;;;;;3.25;2.28;;;;;;;24.79;33.92;97211.19;5073315;28;20044;-60
2022/11/01 08:55:48;;;;;;;3.97;2.55;;;;;;;24.92;33.49;97207.50;5073318;28;20079;-60
2022/11/01 08:58:16;;;;;;;5.43;3.38;;;;;;;24.82;33.67;97199.38;5073516;28;20406;-60
2022/11/01 09:00:44;;;;;;;7.70;2.33;;;;;;;24.83;34.40;97204.59;5073175;28;20044;-60
2022/11/01 09:03:11;;;;;;;4.65;2.15;;;;;;;24.83;33.82;97201.09;5073473;28;20090;-60
2022/11/01 09:05:38;;;;;;;5.75;2.58;;;;;;;24.92;34.20;97200.28;5073272;28;20577;-60
2022/11/01 09:08:05;;;;;;;5.53;2.35;;;;;;;24.81;34.19;97206.56;5073126;28;20083;-60
2022/11/01 09:10:32;;;;;;;4.70;2.60;;;;;;;24.88;33.01;97203.38;5073196;28;20479;-60
2022/11/01 09:13:00;;;;;;;3.42;2.75;;;;;;;24.70;34.54;97207.47;5073080;28;20045;-59
2022/11/01 09:15:29;;;;;;;3.15;2.40;;;;;;;24.68;34.18;97200.56;5073003;28;20080;-60
2022/11/01 09:17:56;;;;;;;7.32;2.70;;;;;;;24.33;34.29;97199.91;5072968;28;20087;-60
2022/11/01 09:20:25;;;;;;;9.10;2.72;;;;;;;24.25;34.43;97205.91;5073089;28;20040;-60
2022/11/01 09:22:52;;;;;;;3.55;2.42;;;;;;;24.14;34.21;97200.63;5072826;28;20506;-60
2022/11/01 09:25:20;;;;;;;4.38;2.72;;;;;;;24.08;34.91;97199.28;5072908;28;20552;-60
2022/11/01 09:27:47;;;;;;;4.13;2.63;;;;;;;24.08;35.47;97191.25;5072988;28;20177;-59
2022/11/01 09:30:15;;;;;;;3.42;2.33;;;;;;;24.08;35.08;97189.41;5073017;28;20414;-60
2022/11/01 09:32:44;;;;;;;3.22;2.63;;;;;;;24.02;35.40;97189.09;5072855;28;20048;-60
2022/11/01 09:35:13;;;;;;;3.45;2.65;;;;;;;24.07;35.56;97182.38;5072854;28;20040;-59
2022/11/01 09:37:40;;;;;;;2.53;2.15;;;;;;;24.07;34.70;97181.53;5072822;28;20105;-61
2022/11/01 09:40:09;;;;;;;7.18;2.55;;;;;;;23.84;35.89;97187.81;5072889;28;20040;-59
2022/11/01 09:42:41;;;;;;;4.70;2.03;;;;;;;23.76;35.94;97184.06;5072855;28;20483;-60
2022/11/01 09:45:15;;;;;;;4.82;2.60;;;;;;;23.56;35.90;97181.19;5072792;28;20056;-59
2022/11/01 09:47:47;;;;;;;3.78;2.58;;;;;;;23.66;35.88;97182.16;5076550;28;20059;-60
2022/11/01 09:50:21;;;;;;;3.03;1.80;;;;;;;23.79;36.34;97178.47;5076711;28;20040;-59
2022/11/01 09:52:50;;;;;;;3.08;2.40;;;;;;;23.93;35.50;97172.00;5076747;28;20044;-59
2022/11/01 09:55:34;;;;;;;6.05;2.20;;;;;;;23.96;36.05;97164.56;5076970;28;20048;-59
2022/11/01 09:58:09;;;;;;;5.47;2.58;;;;;;;23.97;35.61;97168.97;5076648;28;20131;-59
2022/11/01 10:00:41;;;;;;;4.22;2.83;;;;;;;24.08;34.88;97156.53;5076684;28;20494;-60
2022/11/01 10:03:34;;;;;;;7.07;2.20;;;;;;;24.07;35.45;97161.00;5076713;28;20045;-60
2022/11/01 10:06:10;;;;;;;8.32;2.55;;;;;;;24.12;34.64;97155.28;5076378;28;20059;-59
2022/11/01 10:08:49;;;;;;;3.70;2.45;;;;;;;24.25;35.20;97155.13;5076438;28;20131;-59
2022/11/01 10:11:49;;;;;;;5.57;2.15;;;;;;;24.14;35.61;97155.19;5076256;28;20048;-60
2022/11/01 10:14:30;;;;;;;2.60;2.10;;;;;;;24.20;34.54;97147.50;5076292;28;20076;-59
2022/11/01 10:17:07;;;;;;;6.97;2.75;;;;;;;24.21;35.29;97146.53;5076285;28;20080;-59
2022/11/01 10:19:37;;;;;;;4.13;2.13;;;;;;;24.25;35.03;97143.56;5076126;28;20051;-59
2022/11/01 10:22:07;;;;;;;5.03;2.22;;;;;;;24.29;34.81;97140.50;5075881;28;20060;-59
2022/11/01 10:24:40;;;;;;;4.05;2.28;;;;;;;24.33;34.75;97143.78;5076103;28;20052;-60
2022/11/01 10:27:17;;;;;;;5.13;2.35;;;;;;;24.28;34.81;97148.66;5076061;28;20461;-59
2022/11/01 10:29:51;;;;;;;4.55;2.00;;;;;;;24.29;34.59;97142.34;5075959;28;20045;-60
2022/11/01 10:32:31;;;;;;;5.13;2.42;;;;;;;24.25;34.30;97136.41;5075983;28;20044;-59
2022/11/01 10:35:05;;;;;;;5.43;3.00;;;;;;;24.28;35.01;97140.63;5075964;28;20052;-59
2022/11/01 10:37:41;;;;;;;6.95;3.20;;;;;;;24.22;34.58;97140.19;5075920;28;20479;-59
2022/11/01 10:40:14;;;;;;;2.38;2.13;;;;;;;24.11;34.00;97132.22;5075774;28;20048;-59
2022/11/01 10:42:42;;;;;;;4.70;2.50;;;;;;;24.09;34.55;97128.81;5075742;28;20131;-59
2022/11/01 10:45:15;;;;;;;5.53;2.30;;;;;;;24.06;34.79;97123.72;5075802;28;20119;-59
2022/11/01 10:47:44;;;;;;;5.18;2.20;;;;;;;23.95;34.50;97119.28;5075624;28;20058;-60
2022/11/01 10:50:18;;;;;;;3.75;2.40;;;;;;;23.89;34.79;97123.31;5075753;28;20048;-59
2022/11/01 10:52:49;;;;;;;3.88;2.17;;;;;;;23.91;34.92;97113.38;5075855;28;20052;-60
2022/11/01 10:55:22;;;;;;;7.47;1.90;;;;;;;23.99;34.93;97118.06;5075517;28;20044;-59
2022/11/01 10:57:55;;;;;;;4.65;2.92;;;;;;;24.06;35.31;97110.38;5074836;28;20052;-61
2022/11/01 11:00:23;;;;;;;6.68;2.50;;;;;;;24.09;34.86;97107.44;5075471;28;20052;-60
2022/11/01 11:02:54;;;;;;;3.25;2.42;;;;;;;24.05;34.51;97104.19;5075392;28;20481;-60
2022/11/01 11:05:24;;;;;;;7.18;2.20;;;;;;;24.11;34.49;97098.31;5075362;28;20517;-60
2022/11/01 11:07:52;;;;;;;4.53;2.38;;;;;;;24.00;34.70;97103.72;5075325;28;20056;-60
2022/11/01 11:10:23;;;;;;;4.20;2.13;;;;;;;23.86;35.61;97099.53;5075261;28;20071;-60
2022/11/01 11:12:54;;;;;;;4.40;2.42;;;;;;;23.93;34.97;97098.03;5075108;28;20049;-61
2022/11/01 11:15:28;;;;;;;4.18;2.20;;;;;;;23.88;34.74;97091.41;5075258;28;20049;-61
2022/11/01 11:17:59;;;;;;;2.92;2.20;;;;;;;23.94;34.20;97086.41;5075103;28;20052;-60
2022/11/01 11:20:30;;;;;;;3.92;2.00;;;;;;;23.88;35.13;97089.59;5075116;28;20044;-60
2022/11/01 11:23:01;;;;;;;;;;;;;;;23.93;34.51;97089.22;5075243;28;20049;-60
2022/11/01 11:25:36;;;;;;;3.38;1.83;;;;;;;23.85;34.40;97084.50;5074944;28;19920;-60
2022/11/01 11:28:04;;;;;;;2.53;1.90;;;;;;;23.82;34.30;97088.28;5074862;28;20482;-60
2022/11/01 11:30:34;;;;;;;2.83;2.05;;;;;;;23.78;34.74;97076.16;5074887;28;20087;-60
2022/11/01 11:33:03;;;;;;;6.30;2.22;;;;;;;23.82;34.77;97074.06;5074871;28;20131;-60
2022/11/01 11:35:36;;;;;;;3.83;2.28;;;;;;;23.84;35.03;97075.63;5074689;28;20056;-60
2022/11/01 11:38:05;;;;;;;5.97;2.42;;;;;;;23.84;34.95;97077.47;5074828;28;20056;-60
2022/11/01 11:40:44;;;;;;;4.43;2.13;;;;;;;23.88;34.85;97068.22;5074662;28;20106;-59
2022/11/01 11:43:22;;;;;;;2.13;1.90;;;;;;;23.86;34.54;97075.50;5074902;28;20044;-60
2022/11/01 11:46:04;;;;;;;4.63;2.03;;;;;;;23.92;34.53;97077.66;5074594;28;20409;-60
2022/11/01 11:48:32;;;;;;;11.13;2.10;;;;;;;23.91;34.70;97070.63;5074550;28;20124;-60
2022/11/01 11:51:05;;;;;;;3.45;2.13;;;;;;;23.95;34.19;97064.06;5074751;28;20048;-60
2022/11/01 11:53:34;;;;;;;4.65;2.03;;;;;;;23.99;34.72;97067.31;5074418;28;20066;-60
2022/11/01 11:56:05;;;;;;;5.72;2.15;;;;;;;24.06;34.05;97056.94;5074385;28;20044;-60
2022/11/01 11:58:36;;;;;;;4.05;2.08;;;;;;;23.91;34.30;97059.09;5074270;28;20041;-60
2022/11/01 12:01:06;;;;;;;3.67;1.80;;;;;;;23.84;34.44;97058.78;5074314;28;20114;-61